Weather reports worldwide

Advertisment
Briancon, France (7593): temperature & dewpoint: 09.12.2019 19:00:00 - 15.12.2019 19:00:00 (CET)Briancon, France (7593): wind speed: 09.12.2019 19:00:00 - 15.12.2019 19:00:00 (CET)Briancon, France (7593): wind direction: 09.12.2019 19:00:00 - 15.12.2019 19:00:00 (CET)Briancon, France (7593): precipitation: 09.12.2019 19:00:00 - 15.12.2019 19:00:00 (CET)
Date & Time tt [°C] td [°C] ff [km/h] ff [kn] dd rr [mm]
15.12.2019 19:00:00 -0,1 -1,1 3 1 ESE 0,0
15.12.2019 18:00:00 0,8 -0,5 3 2 SSW 0,0
15.12.2019 17:00:00 1,4 -0,5 4 2 SSE 0,0
15.12.2019 16:00:00 4,2 0,3 2 1 SE 0,0
15.12.2019 15:00:00 5,7 0,5 0 0 N 0,0
15.12.2019 14:00:00 4,9 0,7 3 1 SW 0,0
15.12.2019 13:00:00 5,4 0,8 2 1 SSE 0,0
15.12.2019 12:00:00 2,6 -0,3 0 0 N 0,0
15.12.2019 11:00:00 0,7 0,0 3 2 SE 0,0
15.12.2019 10:00:00 -1,0 -1,8 3 2 ENE 0,0
15.12.2019 09:00:00 -1,9 -2,5 2 1 ESE 0,0
15.12.2019 08:00:00 -2,2 -2,9 4 2 SSE 0,0
15.12.2019 07:00:00 -2,1 -2,7 0 0 N 0,0
15.12.2019 06:00:00 -1,8 -2,5 0 0 N 0,0
15.12.2019 05:00:00 -1,1 -1,9 3 1 SE 0,0
15.12.2019 04:00:00 -0,7 -1,4 3 1 ESE 0,0
15.12.2019 03:00:00 -0,4 -1,5 8 5 ENE 0,0
15.12.2019 02:00:00 -0,3 -1,3 3 2 WSW 0,0
15.12.2019 01:00:00 0,5 -0,5 2 1 ENE 0,0
15.12.2019 00:00:00 1,5 0,2 3 2 S 0,0
14.12.2019 23:00:00 2,6 0,8 8 4 E 0,0
14.12.2019 22:00:00 1,6 0,3 3 1 S 0,0
14.12.2019 21:00:00 2,1 0,8 5 3 ENE 0,0
14.12.2019 20:00:00 1,8 0,9 2 1 ENE 0,0
14.12.2019 19:00:00 2,3 1,6 5 3 SE 0,0
14.12.2019 18:00:00 2,4 1,4 3 2 NE 0,0
14.12.2019 17:00:00 2,6 1,6 5 3 SE 0,0
14.12.2019 16:00:00 3,5 1,7 3 1 NNE 0,0
14.12.2019 15:00:00 5,1 1,8 3 1 SW 0,0
14.12.2019 14:00:00 5,2 1,7 4 2 SSW 0,0
14.12.2019 13:00:00 4,5 1,5 6 4 SE 0,0
14.12.2019 12:00:00 5,5 1,0 3 2 SSW 0,0
14.12.2019 11:00:00 2,7 0,8 2 1 SSE 0,0
14.12.2019 10:00:00 0,3 -0,4 3 2 WSW 0,6
14.12.2019 09:00:00 0,2 -0,8 4 2 W 0,0
14.12.2019 08:00:00 -0,3 -1,0 7 4 S 0,0
14.12.2019 07:00:00 -0,5 -1,2 10 5 SSW 0,0
14.12.2019 06:00:00 -0,8 -1,6 3 2 SSW 0,0
14.12.2019 05:00:00 -1,0 -1,8 8 5 SW 0,4
14.12.2019 04:00:00 -1,0 -2,0 7 4 ESE 0,0
14.12.2019 03:00:00 -1,6 -2,6 4 2 NNE 0,2
14.12.2019 02:00:00 -1,6 -2,3 5 3 S 1,8
14.12.2019 01:00:00 -1,7 -2,4 5 3 WSW 0,8
14.12.2019 00:00:00 -1,6 -2,4 4 2 SW 1,0
13.12.2019 23:00:00 -1,7 -2,7 4 2 S 0,6
13.12.2019 22:00:00 -1,5 -3,2 3 2 S 0,0
13.12.2019 21:00:00 -1,6 -3,0 6 3 SW 0,0
13.12.2019 20:00:00 -1,9 -2,9 5 3 SSW 0,2
13.12.2019 19:00:00 -2,1 -3,2 4 2 E 0,2
13.12.2019 18:00:00 -1,9 -3,5 7 4 WSW 0,0
13.12.2019 17:00:00 -0,7 -5,7 9 5 SE 0,2
13.12.2019 16:00:00 -1,4 -3,9 19 10 E 0,2
13.12.2019 15:00:00 -1,4 -4,2 9 5 WNW 0,0
13.12.2019 14:00:00 0,3 -6,4 4 2 ESE 0,0
13.12.2019 13:00:00 0,9 -6,9 14 8 E 0,0
13.12.2019 12:00:00 0,7 -6,6 18 10 NNE 0,0
13.12.2019 11:00:00 -2,1 -3,1 4 2 SSE 0,2
13.12.2019 10:00:00 -2,6 -3,4 8 4 ENE 0,6
13.12.2019 09:00:00 -4,8 -5,9 5 3 SSE 1,2
13.12.2019 08:00:00 -4,7 -5,7 6 3 SW 3,2
13.12.2019 07:00:00 -5,2 -6,3 5 3 W 0,8
13.12.2019 06:00:00 -5,2 -6,3 5 3 E 1,2
13.12.2019 05:00:00 -5,4 -6,5 0 0 N 0,8
13.12.2019 04:00:00 -5,6 -6,7 4 2 W 0,0
13.12.2019 03:00:00 -5,7 -6,9 0 0 N 0,0
13.12.2019 02:00:00 -5,9 -7,1 2 1 ENE 0,2
13.12.2019 01:00:00 -5,9 -7,3 2 1 SW 1,4
13.12.2019 00:00:00 -6,1 -7,5 0 0 N 1,8
12.12.2019 23:00:00 -6,1 -7,8 5 3 NE 0,6
12.12.2019 22:00:00 -6,0 -10,2 0 0 N 0,0
12.12.2019 21:00:00 -6,0 -10,2 0 0 N 0,0
12.12.2019 20:00:00 -6,5 -10,2 3 1 S 0,0
12.12.2019 19:00:00 -6,7 -11,1 8 4 NE 0,0
12.12.2019 18:00:00 -5,4 -9,5 5 3 E 0,0
12.12.2019 17:00:00 -2,9 -7,6 6 3 E 0,0
12.12.2019 16:00:00 -1,1 -7,5 4 2 NNE 0,0
12.12.2019 15:00:00 0,5 -7,3 6 3 WSW 0,0
12.12.2019 14:00:00 0,6 -8,1 8 4 W 0,0
12.12.2019 13:00:00 0,7 -6,9 5 3 WNW 0,0
12.12.2019 12:00:00 -0,5 -6,3 6 3 S 0,0
12.12.2019 11:00:00 -1,9 -9,5 5 3 SSW 0,0
12.12.2019 10:00:00 -5,0 -10,6 3 1 SE 0,0
12.12.2019 09:00:00 -4,2 -11,5 6 3 SE 0,0
12.12.2019 08:00:00 -4,9 -9,0 9 5 ESE 0,0
12.12.2019 07:00:00 -3,7 -7,1 4 2 ESE 0,0
12.12.2019 06:00:00 -1,7 -4,5 13 7 ENE 0,0
12.12.2019 05:00:00 -3,1 -4,1 2 1 ENE 0,0
12.12.2019 04:00:00 -2,4 -3,4 2 1 E 0,0
12.12.2019 03:00:00 -2,1 -2,9 3 2 NE 0,0
12.12.2019 02:00:00 -2,1 -3,1 4 2 SSW 0,0
12.12.2019 01:00:00 -2,1 -2,7 4 2 E 0,0
12.12.2019 00:00:00 -2,0 -2,6 6 3 S 0,0
11.12.2019 23:00:00 -2,0 -2,6 0 0 N 0,0
11.12.2019 22:00:00 -1,9 -2,5 0 0 N 0,0
11.12.2019 21:00:00 -1,9 -2,7 3 2 SSW 0,0
11.12.2019 20:00:00 -1,2 -2,5 0 0 N 0,0
11.12.2019 19:00:00 -1,2 -2,6 0 0 N 0,0
11.12.2019 18:00:00 -0,7 -2,4 11 6 WSW 0,0
11.12.2019 17:00:00 0,8 -5,9 7 4 NNE 0,0
11.12.2019 16:00:00 1,5 -10,7 2 1 W 0,0
11.12.2019 15:00:00 1,9 -10,6 3 2 SSW 0,0
11.12.2019 14:00:00 2,1 -6,5 2 1 NE 0,0
11.12.2019 13:00:00 2,0 -8,4 2 1 WNW 0,0
11.12.2019 12:00:00 1,0 -8,8 0 0 N 0,0
11.12.2019 11:00:00 -0,3 -8,7 0 0 N 0,0
11.12.2019 10:00:00 -1,6 -9,5 2 1 W 0,0
11.12.2019 09:00:00 -2,6 -9,3 3 1 ENE 0,0
11.12.2019 08:00:00 -4,3 -10,7 2 1 S 0,0
11.12.2019 07:00:00 -4,3 -11,1 2 1 E 0,0
11.12.2019 06:00:00 -4,6 -11,8 0 0 N 0,0
11.12.2019 05:00:00 -5,2 -12,2 2 1 S 0,0
11.12.2019 04:00:00 -5,2 -12,0 4 2 E 0,0
11.12.2019 03:00:00 -5,3 -11,4 2 1 ENE 0,0
11.12.2019 02:00:00 -4,5 -12,0 5 3 NE 0,0
11.12.2019 01:00:00 -4,4 -12,3 4 2 S 0,0
11.12.2019 00:00:00 -4,5 -11,7 3 2 NE 0,0
10.12.2019 23:00:00 -4,9 -11,7 2 1 ENE 0,0
10.12.2019 22:00:00 -4,8 -12,5 2 1 ESE 0,0
10.12.2019 21:00:00 -4,7 -11,9 3 1 ESE 0,0
10.12.2019 20:00:00 -4,3 -11,8 2 1 SSE 0,0
10.12.2019 19:00:00 -3,3 -11,8 3 2 SSW 0,0
10.12.2019 18:00:00 -2,6 -11,6 2 1 SSW 0,0
10.12.2019 17:00:00 0,0 -12,7 14 8 E 0,0
10.12.2019 16:00:00 2,5 -13,4 16 9 ENE 0,0
10.12.2019 15:00:00 2,7 -12,8 24 13 ENE 0,0
10.12.2019 14:00:00 1,9 -10,9 14 8 ENE 0,0
10.12.2019 13:00:00 2,9 -13,0 14 7 ENE 0,0
10.12.2019 12:00:00 1,3 -11,8 24 13 ENE -
10.12.2019 11:00:00 2,0 -14,2 16 9 E 0,0
10.12.2019 10:00:00 0,4 -12,6 16 8 E 0,0
10.12.2019 09:00:00 -0,7 -10,9 13 7 ENE 0,0
10.12.2019 08:00:00 -2,2 -9,4 14 8 ENE 0,0
10.12.2019 07:00:00 -2,2 -8,1 8 4 E 0,0
10.12.2019 06:00:00 0,1 -9,4 9 5 E 0,0
10.12.2019 05:00:00 -0,1 -7,8 14 8 E 0,0
10.12.2019 04:00:00 0,8 -8,0 10 6 ESE 0,0
10.12.2019 03:00:00 -0,5 -7,3 8 4 E 0,0
10.12.2019 02:00:00 0,6 -6,7 13 7 E 0,0
10.12.2019 01:00:00 0,3 -6,4 9 5 E 0,0
10.12.2019 00:00:00 0,8 -6,5 10 6 E 0,2
09.12.2019 23:00:00 1,0 -4,4 10 5 NE 0,2
09.12.2019 22:00:00 0,1 -3,5 15 8 ESE 0,2
09.12.2019 21:00:00 0,0 -3,0 9 5 E 0,2
09.12.2019 20:00:00 0,0 -1,4 13 7 E 0,2
09.12.2019 19:00:00 0,5 -2,4 10 5 E 0,2

tt = temperature
td = dewpoint
ff = wind speed
dd = wind direction
rr = precipitation

Next stations